Time;durP1;ratioP1;P1;durP2;ratioP2;P2;SDS_P1;SDS_P2;PMS_P1;PMS_P2;Temp;Humidity;BMP_temperature;BMP_pressure;BME280_temperature;BME280_humidity;BME280_pressure;Samples;Min_cycle;Max_cycle;Signal;HPM_P1;HPM_P2
2021/08/19 00:01:49;;;;;;;11.20;9.93;;;20.00;99.90;;;;;;5055553;28;20029;-74
2021/08/19 00:04:16;;;;;;;11.80;10.43;;;20.00;99.90;;;;;;5055159;28;20029;-74
2021/08/19 00:06:41;;;;;;;12.25;10.35;;;20.00;99.90;;;;;;5055246;28;20417;-77
2021/08/19 00:09:07;;;;;;;11.45;9.90;;;20.00;99.90;;;;;;5054967;28;20025;-75
2021/08/19 00:11:33;;;;;;;14.05;9.93;;;20.10;99.90;;;;;;5055140;28;20074;-76
2021/08/19 00:13:59;;;;;;;10.82;9.45;;;20.10;99.90;;;;;;5055046;28;20027;-76
2021/08/19 00:16:25;;;;;;;10.27;9.15;;;20.10;99.90;;;;;;5055223;28;20104;-73
2021/08/19 00:18:50;;;;;;;12.05;9.35;;;20.10;99.90;;;;;;5054769;28;20021;-74
2021/08/19 00:21:16;;;;;;;10.15;9.13;;;20.10;99.90;;;;;;5055391;28;20515;-73
2021/08/19 00:23:42;;;;;;;10.43;9.23;;;20.00;99.90;;;;;;5054702;28;20028;-71
2021/08/19 00:26:08;;;;;;;9.60;8.70;;;20.00;99.90;;;;;;5054880;28;20359;-76
2021/08/19 00:28:34;;;;;;;11.02;9.93;;;20.10;99.90;;;;;;5054574;28;20032;-80
2021/08/19 00:31:00;;;;;;;11.70;10.50;;;20.00;99.90;;;;;;5054466;28;20437;-78
2021/08/19 00:33:26;;;;;;;10.38;9.30;;;20.20;99.90;;;;;;5055214;28;20473;-75
2021/08/19 00:35:52;;;;;;;11.02;9.77;;;20.20;99.90;;;;;;5054062;28;20392;-77
2021/08/19 00:38:17;;;;;;;11.70;9.70;;;20.10;99.90;;;;;;5054670;28;20039;-77
2021/08/19 00:40:43;;;;;;;10.90;9.77;;;20.10;99.90;;;;;;5053332;28;20455;-79
2021/08/19 00:43:09;;;;;;;10.98;9.60;;;20.10;99.90;;;;;;5054613;28;20033;-82
2021/08/19 00:45:35;;;;;;;11.18;9.98;;;20.10;99.90;;;;;;5052466;28;20055;-75
2021/08/19 00:48:01;;;;;;;12.38;9.73;;;20.10;99.90;;;;;;5054734;28;20094;-74
2021/08/19 00:50:27;;;;;;;11.45;10.23;;;20.10;99.90;;;;;;5054141;28;20033;-73
2021/08/19 00:52:53;;;;;;;13.65;9.90;;;20.10;99.90;;;;;;5054252;28;20418;-74
2021/08/19 00:55:19;;;;;;;10.60;9.50;;;20.10;99.90;;;;;;5054340;28;20021;-75
2021/08/19 00:57:46;;;;;;;10.88;9.75;;;20.10;99.90;;;;;;5054021;28;20017;-72
2021/08/19 01:00:14;;;;;;;10.95;9.80;;;20.00;99.90;;;;;;5054554;28;20349;-74
2021/08/19 01:02:46;;;;;;;11.25;9.93;;;19.90;99.90;;;;;;5054518;28;20534;-73
2021/08/19 01:05:18;;;;;;;12.20;9.52;;;19.90;99.90;;;;;;5053983;28;20075;-71
2021/08/19 01:07:47;;;;;;;9.98;8.98;;;19.90;99.90;;;;;;5053890;28;20025;-73
2021/08/19 01:10:13;;;;;;;10.70;9.50;;;19.90;99.90;;;;;;5054232;28;20029;-78
2021/08/19 01:12:46;;;;;;;9.63;8.55;;;19.80;99.90;;;;;;5054400;28;20397;-72
2021/08/19 01:15:12;;;;;;;9.40;8.00;;;19.80;99.90;;;;;;5053987;28;20471;-73
2021/08/19 01:17:38;;;;;;;9.35;8.45;;;19.90;99.90;;;;;;5054036;28;20579;-71
2021/08/19 01:20:06;;;;;;;9.57;8.57;;;19.80;99.90;;;;;;5053858;28;20095;-79
2021/08/19 01:22:33;;;;;;;8.60;7.80;;;19.90;99.90;;;;;;5052955;28;20096;-75
2021/08/19 01:24:59;;;;;;;9.05;8.15;;;19.90;99.90;;;;;;5053656;28;20037;-72
2021/08/19 01:27:25;;;;;;;10.45;8.00;;;19.90;99.90;;;;;;5053630;28;20041;-72
2021/08/19 01:29:51;;;;;;;8.68;7.47;;;19.90;99.90;;;;;;5053513;28;20025;-71
2021/08/19 01:32:17;;;;;;;8.15;7.20;;;19.90;99.90;;;;;;5053653;28;20045;-71
2021/08/19 01:34:43;;;;;;;8.32;6.82;;;19.90;99.90;;;;;;5053211;28;20138;-72
2021/08/19 01:37:10;;;;;;;9.93;7.13;;;19.80;99.90;;;;;;5053838;28;20033;-72
2021/08/19 01:39:37;;;;;;;8.13;6.78;;;19.80;99.90;;;;;;5053597;28;20032;-71
2021/08/19 01:42:03;;;;;;;9.38;7.40;;;19.90;99.90;;;;;;5053955;28;20045;-72
2021/08/19 01:44:29;;;;;;;8.50;6.88;;;20.00;99.90;;;;;;5054051;28;20375;-74
2021/08/19 01:46:59;;;;;;;9.05;6.80;;;19.90;99.90;;;;;;5053409;28;20025;-71
2021/08/19 01:49:32;;;;;;;8.80;7.20;;;20.00;99.90;;;;;;5053812;28;20051;-74
2021/08/19 01:52:02;;;;;;;6.72;6.13;;;19.90;99.90;;;;;;5053717;28;20437;-72
2021/08/19 01:54:28;;;;;;;7.82;6.82;;;20.00;99.90;;;;;;5053238;28;20028;-78
2021/08/19 01:56:55;;;;;;;7.43;6.68;;;20.00;99.90;;;;;;5055316;28;20025;-83
2021/08/19 01:59:20;;;;;;;8.07;7.07;;;19.90;99.90;;;;;;5057176;28;20090;-75
2021/08/19 02:01:46;;;;;;;10.88;7.28;;;19.90;99.90;;;;;;5057295;28;20025;-75
2021/08/19 02:04:12;;;;;;;8.32;7.03;;;19.90;99.90;;;;;;5057813;28;20025;-72
2021/08/19 02:06:38;;;;;;;8.32;7.28;;;19.90;99.90;;;;;;5057417;28;20414;-72
2021/08/19 02:09:04;;;;;;;10.27;7.55;;;19.90;99.90;;;;;;5057296;28;20025;-73
2021/08/19 02:11:30;;;;;;;9.18;7.30;;;19.90;99.90;;;;;;5057072;28;20462;-73
2021/08/19 02:13:55;;;;;;;9.55;7.60;;;19.90;99.90;;;;;;5057126;28;20025;-71
2021/08/19 02:16:21;;;;;;;9.25;7.47;;;19.90;99.90;;;;;;5057338;28;20032;-86
2021/08/19 02:18:47;;;;;;;8.98;8.07;;;19.90;99.90;;;;;;5055499;28;20032;-70
2021/08/19 02:21:12;;;;;;;9.35;7.72;;;19.90;99.90;;;;;;5057249;28;20048;-71
2021/08/19 02:23:38;;;;;;;9.68;7.88;;;19.80;99.90;;;;;;5057359;28;20344;-71
2021/08/19 02:26:04;;;;;;;9.95;7.65;;;19.80;99.90;;;;;;5057421;28;20038;-80
2021/08/19 02:28:30;;;;;;;8.45;6.70;;;20.00;99.90;;;;;;5057031;28;20039;-81
2021/08/19 02:30:56;;;;;;;7.80;7.00;;;20.10;99.90;;;;;;5056457;28;20108;-81
2021/08/19 02:33:22;;;;;;;8.05;7.25;;;20.00;99.90;;;;;;5056700;28;20025;-72
2021/08/19 02:35:47;;;;;;;8.35;7.25;;;20.00;99.90;;;;;;5056448;28;20049;-73
2021/08/19 02:38:13;;;;;;;8.38;7.47;;;20.00;99.90;;;;;;5056972;28;20100;-72
2021/08/19 02:40:40;;;;;;;8.80;7.57;;;20.00;99.90;;;;;;5056625;28;20029;-74
2021/08/19 02:43:06;;;;;;;8.05;7.25;;;20.10;99.90;;;;;;5056691;28;20025;-70
2021/08/19 02:45:33;;;;;;;9.30;7.60;;;20.10;99.90;;;;;;5056659;28;20021;-68
2021/08/19 02:47:59;;;;;;;8.45;7.65;;;20.10;99.90;;;;;;5056843;28;20044;-85
2021/08/19 02:50:25;;;;;;;10.43;8.20;;;20.10;99.90;;;;;;5054794;28;20021;-71
2021/08/19 02:52:51;;;;;;;12.50;7.88;;;20.00;99.90;;;;;;5056883;28;20029;-71
2021/08/19 02:55:16;;;;;;;9.80;8.20;;;19.90;99.90;;;;;;5056543;28;20061;-76
2021/08/19 02:57:42;;;;;;;8.98;7.18;;;19.90;99.90;;;;;;5056348;28;20028;-71
2021/08/19 03:00:08;;;;;;;10.35;8.60;;;19.80;99.90;;;;;;5056139;28;20029;-71
2021/08/19 03:02:34;;;;;;;10.80;8.45;;;19.80;99.90;;;;;;5056545;28;20028;-79
2021/08/19 03:05:00;;;;;;;15.82;13.02;;;19.70;99.90;;;;;;5056265;28;20363;-70
2021/08/19 03:07:26;;;;;;;20.52;16.33;;;19.50;99.90;;;;;;5055570;28;20122;-71
2021/08/19 03:09:52;;;;;;;24.35;19.17;;;19.20;99.90;;;;;;5056083;28;20479;-75
2021/08/19 03:12:18;;;;;;;30.95;24.33;;;19.00;99.90;;;;;;5056054;28;20031;-74
2021/08/19 03:14:44;;;;;;;39.10;27.58;;;18.80;99.90;;;;;;5056118;28;20051;-73
2021/08/19 03:17:10;;;;;;;37.42;25.00;;;18.70;99.90;;;;;;5056217;28;20530;-75
2021/08/19 03:19:36;;;;;;;77.40;31.25;;;18.60;99.90;;;;;;5056043;28;20100;-75
2021/08/19 03:22:03;;;;;;;105.15;36.22;;;18.50;99.90;;;;;;5055999;28;20039;-73
2021/08/19 03:24:29;;;;;;;32.90;13.50;;;18.30;99.90;;;;;;5055898;28;20017;-71
2021/08/19 03:26:56;;;;;;;1.20;1.05;;;18.30;99.90;;;;;;5055906;28;20417;-71
2021/08/19 03:29:22;;;;;;;0.95;0.90;;;18.20;99.90;;;;;;5056206;28;20083;-73
2021/08/19 03:31:48;;;;;;;0.52;0.52;;;18.20;99.90;;;;;;5056024;28;20043;-78
2021/08/19 03:34:13;;;;;;;1.55;1.45;;;18.30;99.90;;;;;;5055306;28;20372;-74
2021/08/19 03:36:39;;;;;;;0.70;0.70;;;18.30;99.90;;;;;;5055642;28;20036;-71
2021/08/19 03:39:05;;;;;;;1.13;1.13;;;18.20;99.90;;;;;;5055766;28;20029;-73
2021/08/19 03:41:32;;;;;;;1.58;1.48;;;18.10;99.90;;;;;;5055583;28;20013;-86
2021/08/19 03:43:58;;;;;;;1.38;1.27;;;18.10;99.90;;;;;;5054206;28;20391;-82
2021/08/19 03:46:24;;;;;;;1.20;1.13;;;18.10;99.90;;;;;;5055589;28;20025;-77
2021/08/19 03:48:50;;;;;;;0.50;0.50;;;18.10;99.90;;;;;;5055247;28;20379;-76
2021/08/19 03:51:16;;;;;;;1.23;1.20;;;18.10;99.90;;;;;;5055167;28;20048;-69
2021/08/19 03:53:41;;;;;;;5.75;1.85;;;18.10;99.90;;;;;;5055612;28;20083;-76
2021/08/19 03:56:07;;;;;;;2.42;1.77;;;18.20;99.90;;;;;;5055443;28;20029;-75
2021/08/19 03:58:33;;;;;;;1.30;1.20;;;18.20;99.90;;;;;;5055406;28;20029;-76
2021/08/19 04:01:01;;;;;;;1.33;1.17;;;18.10;99.90;;;;;;5055108;28;20033;-75
2021/08/19 04:03:27;;;;;;;1.65;1.55;;;18.00;99.90;;;;;;5055460;28;20029;-79
2021/08/19 04:05:52;;;;;;;1.02;0.93;;;18.00;99.90;;;;;;5055475;28;20025;-73
2021/08/19 04:08:18;;;;;;;3.13;2.22;;;18.10;99.90;;;;;;5054962;28;20028;-73
2021/08/19 04:10:44;;;;;;;2.58;1.88;;;18.00;99.90;;;;;;5055146;28;20083;-76
2021/08/19 04:13:10;;;;;;;2.13;1.92;;;17.90;99.90;;;;;;5054891;28;20033;-77
2021/08/19 04:15:36;;;;;;;0.77;0.77;;;17.90;99.90;;;;;;5054927;28;20120;-75
2021/08/19 04:18:02;;;;;;;1.85;1.75;;;17.80;99.90;;;;;;5055004;28;20029;-76
2021/08/19 04:20:27;;;;;;;1.55;1.15;;;17.80;99.90;;;;;;5054088;28;20025;-73
2021/08/19 04:22:53;;;;;;;2.33;1.85;;;17.90;99.90;;;;;;5054680;28;20028;-74
2021/08/19 04:25:19;;;;;;;0.68;0.68;;;17.80;99.90;;;;;;5054600;28;20107;-78
2021/08/19 04:27:44;;;;;;;0.57;0.57;;;17.80;99.90;;;;;;5055091;28;20451;-76
2021/08/19 04:30:11;;;;;;;0.70;0.70;;;17.70;99.90;;;;;;5054919;28;20033;-79
2021/08/19 04:32:37;;;;;;;0.43;0.43;;;17.70;99.90;;;;;;5054870;28;20025;-74
2021/08/19 04:35:03;;;;;;;3.97;2.17;;;17.60;99.90;;;;;;5054169;28;20045;-71
2021/08/19 04:37:28;;;;;;;2.13;1.50;;;17.70;99.90;;;;;;5054441;28;20082;-71
2021/08/19 04:39:54;;;;;;;0.45;0.45;;;17.70;99.90;;;;;;5054192;28;20107;-72
2021/08/19 18:14:19;;;;;;;1.58;1.48;;;18.60;99.90;;;;;;5112619;27;20442;-87
2021/08/19 18:16:45;;;;;;;0.52;0.52;;;18.40;99.90;;;;;;5110734;28;20024;-87
2021/08/19 18:19:11;;;;;;;2.88;1.30;;;18.40;99.90;;;;;;5110726;28;20034;-87
2021/08/19 18:21:37;;;;;;;1.27;1.02;;;18.50;99.90;;;;;;5111845;28;20026;-86
2021/08/19 18:24:03;;;;;;;1.02;0.80;;;18.60;99.90;;;;;;5111615;28;20477;-85
2021/08/19 18:26:30;;;;;;;0.88;0.88;;;18.70;99.90;;;;;;5110403;28;20024;-85
2021/08/19 18:28:56;;;;;;;2.97;2.05;;;18.80;99.90;;;;;;5110514;28;20028;-86
2021/08/19 18:31:23;;;;;;;1.08;1.08;;;18.90;99.90;;;;;;5111802;28;20020;-87
2021/08/19 18:33:50;;;;;;;0.65;0.63;;;19.00;99.90;;;;;;5110173;28;20034;-89
2021/08/19 18:36:15;;;;;;;0.47;0.47;;;19.10;99.90;;;;;;5111648;28;20453;-85
2021/08/19 18:38:41;;;;;;;1.05;0.82;;;19.20;99.90;;;;;;5111422;28;20024;-88
2021/08/19 18:41:07;;;;;;;1.58;1.27;;;19.20;99.90;;;;;;5111572;28;20515;-86
2021/08/19 18:43:33;;;;;;;1.85;0.40;;;19.30;99.90;;;;;;5109931;28;20024;-80
2021/08/19 18:46:02;;;;;;;1.08;1.05;;;19.30;99.90;;;;;;5098588;28;20104;-89
2021/08/19 18:48:27;;;;;;;0.60;0.60;;;19.30;99.90;;;;;;5111492;28;20178;-85
2021/08/19 18:50:54;;;;;;;0.77;0.50;;;19.30;99.90;;;;;;5099300;28;20432;-88
2021/08/19 18:53:21;;;;;;;0.10;0.10;;;19.40;99.90;;;;;;5090979;28;20567;-89
2021/08/19 18:55:46;;;;;;;0.93;0.93;;;19.40;99.90;;;;;;5090833;28;20524;-88
2021/08/19 18:58:12;;;;;;;0.50;0.50;;;19.40;99.90;;;;;;5090129;28;20032;-90
2021/08/19 19:00:39;;;;;;;1.38;0.88;;;19.40;99.90;;;;;;5090164;28;20424;-83
2021/08/19 19:03:04;;;;;;;1.13;1.13;;;19.40;99.90;;;;;;5102435;28;20118;-90
2021/08/19 19:05:30;;;;;;;1.23;1.17;;;19.40;99.90;;;;;;5110717;28;20099;-88
2021/08/19 19:07:56;;;;;;;2.35;1.25;;;19.40;99.90;;;;;;5109758;28;20053;-89
2021/08/19 19:10:22;;;;;;;0.55;0.55;;;19.40;99.90;;;;;;5109746;28;20024;-85
2021/08/19 19:12:55;;;;;;;0.10;0.10;;;19.40;99.90;;;;;;5110778;28;20083;-89
2021/08/19 19:15:25;;;;;;;0.55;0.35;;;19.40;99.90;;;;;;5106327;28;20028;-84
2021/08/19 19:17:50;;;;;;;1.42;1.35;;;19.50;99.90;;;;;;5118377;28;20054;-80
2021/08/19 19:20:16;;;;;;;0.90;0.77;;;19.50;99.90;;;;;;5131088;28;20062;-85
2021/08/19 19:22:42;;;;;;;0.63;0.63;;;19.60;99.90;;;;;;5131322;28;20038;-88
2021/08/19 19:25:08;;;;;;;0.20;0.20;;;19.60;99.90;;;;;;5119594;28;20035;-83
2021/08/19 19:27:36;;;;;;;0.30;0.30;;;19.60;99.90;;;;;;5117293;28;20020;-89
2021/08/19 19:30:07;;;;;;;14.80;1.17;;;19.70;99.90;;;;;;5116102;28;20110;-80
2021/08/19 19:32:33;;;;;;;0.70;0.55;;;19.70;99.90;;;;;;5117705;28;20023;-87
2021/08/19 19:34:58;;;;;;;2.83;2.00;;;19.60;99.90;;;;;;5117406;28;20027;-88
2021/08/19 19:37:24;;;;;;;1.17;1.17;;;19.60;99.90;;;;;;5117240;28;20032;-91
2021/08/19 19:39:50;;;;;;;0.93;0.93;;;19.70;99.90;;;;;;5104882;28;20401;-85
2021/08/19 19:42:15;;;;;;;0.60;0.60;;;19.70;99.90;;;;;;5096832;28;20024;-89
2021/08/19 19:44:41;;;;;;;0.40;0.40;;;19.80;99.90;;;;;;5096680;28;20020;-87
2021/08/19 19:47:07;;;;;;;0.60;0.60;;;19.90;99.90;;;;;;5099567;28;20035;-92
2021/08/19 19:49:32;;;;;;;1.52;1.45;;;20.00;99.90;;;;;;5117207;28;20026;-86
2021/08/19 19:51:58;;;;;;;0.93;0.88;;;20.00;99.90;;;;;;5117262;28;20020;-86
2021/08/19 19:54:24;;;;;;;0.47;0.47;;;20.00;99.90;;;;;;5115475;28;20121;-84
2021/08/19 19:56:50;;;;;;;0.40;0.40;;;20.00;99.90;;;;;;5117155;28;20024;-88
2021/08/19 19:59:16;;;;;;;0.77;0.57;;;20.10;99.90;;;;;;5116921;28;20023;-84
2021/08/19 20:01:42;;;;;;;0.17;0.17;;;20.10;99.90;;;;;;5116744;28;20103;-82
2021/08/19 20:04:07;;;;;;;0.68;0.68;;;20.10;99.90;;;;;;5116720;28;20028;-83
2021/08/19 20:06:33;;;;;;;2.88;0.45;;;20.10;99.90;;;;;;5116709;28;20084;-86
2021/08/19 20:08:59;;;;;;;0.80;0.80;;;20.10;99.90;;;;;;5116628;28;20466;-85
2021/08/19 20:11:24;;;;;;;0.43;0.40;;;20.10;99.90;;;;;;5116506;28;20055;-85
2021/08/19 20:13:51;;;;;;;0.50;0.50;;;20.10;99.90;;;;;;5116086;28;20073;-88
2021/08/19 20:16:17;;;;;;;2.17;0.90;;;20.10;99.90;;;;;;5115346;28;20015;-84
2021/08/19 20:18:44;;;;;;;0.55;0.55;;;20.10;99.90;;;;;;5116501;28;20022;-79
2021/08/19 20:21:10;;;;;;;0.20;0.20;;;20.10;99.90;;;;;;5116780;28;20020;-79
2021/08/19 20:23:36;;;;;;;0.17;0.17;;;20.10;99.90;;;;;;5116266;28;20031;-88
2021/08/19 20:26:02;;;;;;;0.98;0.95;;;20.10;99.90;;;;;;5116259;28;20028;-86
2021/08/19 20:28:28;;;;;;;1.15;0.50;;;20.10;99.90;;;;;;5116219;28;20024;-89
2021/08/19 20:30:56;;;;;;;1.33;1.00;;;20.10;99.90;;;;;;5115155;28;20073;-88
2021/08/19 20:33:21;;;;;;;0.75;0.75;;;20.10;99.90;;;;;;5116031;28;20035;-80
2021/08/19 20:35:47;;;;;;;0.35;0.35;;;20.10;99.90;;;;;;5115255;28;20020;-79
2021/08/19 20:38:12;;;;;;;1.10;1.08;;;20.10;99.90;;;;;;5115902;28;20072;-87
2021/08/19 20:40:38;;;;;;;0.65;0.65;;;20.10;99.90;;;;;;5115707;28;20030;-85
2021/08/19 20:43:04;;;;;;;0.57;0.57;;;20.00;99.90;;;;;;5116731;28;20028;-91
2021/08/19 20:45:30;;;;;;;0.95;0.70;;;19.90;99.90;;;;;;5114745;28;20024;-82
2021/08/19 20:47:56;;;;;;;0.60;0.43;;;19.90;99.90;;;;;;5115505;28;20031;-81
2021/08/19 20:50:21;;;;;;;0.93;0.93;;;19.90;99.90;;;;;;5097568;28;20064;-87
2021/08/19 20:52:47;;;;;;;1.00;0.93;;;19.90;99.90;;;;;;5095194;28;20113;-88
2021/08/19 20:55:13;;;;;;;1.13;0.75;;;19.90;99.90;;;;;;5095591;28;20160;-85
2021/08/19 20:57:39;;;;;;;0.85;0.30;;;19.80;99.90;;;;;;5095410;28;20067;-89
2021/08/19 21:00:05;;;;;;;0.98;0.98;;;19.70;99.90;;;;;;5095716;28;20022;-89
2021/08/19 21:02:31;;;;;;;0.57;0.57;;;19.70;99.90;;;;;;5095313;28;20136;-89
2021/08/19 21:04:57;;;;;;;0.63;0.63;;;19.60;99.90;;;;;;5095180;28;20041;-87
2021/08/19 21:07:22;;;;;;;0.47;0.47;;;19.60;99.90;;;;;;5095656;28;20470;-94
2021/08/19 21:09:48;;;;;;;3.33;1.60;;;19.50;99.90;;;;;;5095212;28;20031;-88
2021/08/19 21:12:17;;;;;;;0.30;0.30;;;19.50;99.90;;;;;;5095002;28;20080;-90
2021/08/19 21:14:43;;;;;;;0.10;0.10;;;19.40;99.90;;;;;;5095438;28;20412;-88
2021/08/19 21:17:09;;;;;;;0.15;0.15;;;19.40;99.90;;;;;;5095484;28;20024;-87
2021/08/19 21:19:34;;;;;;;0.40;0.40;;;19.30;99.90;;;;;;5095327;28;20012;-87
2021/08/19 21:22:00;;;;;;;0.22;0.22;;;19.30;99.90;;;;;;5094770;28;20373;-84
2021/08/19 21:24:26;;;;;;;0.00;0.00;;;19.30;99.90;;;;;;5094774;28;20024;-86
2021/08/19 21:26:52;;;;;;;1.17;1.17;;;19.30;99.90;;;;;;5095069;28;20031;-88
2021/08/19 21:29:19;;;;;;;0.15;0.15;;;19.30;99.90;;;;;;5095113;28;20024;-83
2021/08/19 21:31:45;;;;;;;0.32;0.32;;;19.40;99.90;;;;;;5094986;28;20016;-87
2021/08/19 21:34:11;;;;;;;0.28;0.28;;;19.40;99.90;;;;;;5094753;28;20028;-85
2021/08/19 21:36:36;;;;;;;1.05;1.00;;;19.40;99.90;;;;;;5094615;28;20454;-85
2021/08/19 21:39:04;;;;;;;0.85;0.85;;;19.30;99.90;;;;;;5094430;28;20470;-88
2021/08/19 21:41:29;;;;;;;0.40;0.40;;;19.30;99.90;;;;;;5094661;28;20021;-86
2021/08/19 21:43:57;;;;;;;1.20;0.93;;;19.30;99.90;;;;;;5094633;28;20081;-87
2021/08/19 21:46:23;;;;;;;4.95;1.75;;;19.30;99.90;;;;;;5094384;28;20077;-89
2021/08/19 21:48:49;;;;;;;1.02;0.93;;;19.30;99.90;;;;;;5094102;28;20073;-86
2021/08/19 21:51:15;;;;;;;0.52;0.52;;;19.30;99.90;;;;;;5094231;28;20458;-80
2021/08/19 21:53:41;;;;;;;0.17;0.17;;;19.30;99.90;;;;;;5094136;28;20027;-83
2021/08/19 21:56:07;;;;;;;0.25;0.25;;;19.30;99.90;;;;;;5094533;28;20016;-88
2021/08/19 21:58:32;;;;;;;0.80;0.80;;;19.30;99.90;;;;;;5093613;28;20069;-78
2021/08/19 22:00:58;;;;;;;0.28;0.28;;;19.20;99.90;;;;;;5094546;28;20069;-89
2021/08/19 22:03:24;;;;;;;0.68;0.68;;;19.20;99.90;;;;;;5095286;28;20028;-92
2021/08/19 22:05:50;;;;;;;0.28;0.28;;;19.30;99.90;;;;;;5078593;28;20426;-85
2021/08/19 22:08:15;;;;;;;0.32;0.32;;;19.30;99.90;;;;;;5074036;28;20375;-85
2021/08/19 22:10:41;;;;;;;0.55;0.55;;;19.30;99.90;;;;;;5073973;28;20031;-77
2021/08/19 22:13:07;;;;;;;1.02;0.95;;;19.30;99.90;;;;;;5073538;28;20049;-88
2021/08/19 22:15:33;;;;;;;0.68;0.68;;;19.30;99.90;;;;;;5073862;28;20017;-80
2021/08/19 22:17:58;;;;;;;0.63;0.63;;;19.40;99.90;;;;;;5074569;28;20096;-88
2021/08/19 22:20:24;;;;;;;0.77;0.77;;;19.40;99.90;;;;;;5074003;28;20024;-85
2021/08/19 22:22:50;;;;;;;0.70;0.70;;;19.40;99.90;;;;;;5073999;28;20111;-85
2021/08/19 22:25:16;;;;;;;0.57;0.45;;;19.40;99.90;;;;;;5073482;28;20032;-86
2021/08/19 22:27:41;;;;;;;0.80;0.80;;;19.40;99.90;;;;;;5073716;28;20494;-82
2021/08/19 22:30:10;;;;;;;0.40;0.40;;;19.50;99.90;;;;;;5074155;28;20111;-85
2021/08/19 22:32:36;;;;;;;0.28;0.28;;;19.50;99.90;;;;;;5073889;28;20039;-77
2021/08/19 22:35:01;;;;;;;1.20;1.10;;;19.60;99.90;;;;;;5074267;28;20020;-75
2021/08/19 22:37:27;;;;;;;0.30;0.30;;;19.60;99.90;;;;;;5073755;28;20025;-84
2021/08/19 22:39:53;;;;;;;0.65;0.65;;;19.60;99.90;;;;;;5073808;28;20455;-83
2021/08/19 22:42:19;;;;;;;0.50;0.50;;;19.60;99.90;;;;;;5073340;28;20016;-83
2021/08/19 22:44:44;;;;;;;0.25;0.25;;;19.70;99.90;;;;;;5073358;28;20383;-88
2021/08/19 22:47:10;;;;;;;0.57;0.57;;;19.70;99.90;;;;;;5072271;28;20021;-80
2021/08/19 22:49:39;;;;;;;0.85;0.85;;;19.70;99.90;;;;;;5073834;28;20025;-82
2021/08/19 22:52:06;;;;;;;0.35;0.35;;;19.80;99.90;;;;;;5073211;28;20017;-82
2021/08/19 22:54:31;;;;;;;1.10;0.90;;;19.70;99.90;;;;;;5073447;28;20028;-78
2021/08/19 22:56:57;;;;;;;0.60;0.60;;;19.80;99.90;;;;;;5073768;28;20374;-80
2021/08/19 22:59:23;;;;;;;0.50;0.38;;;19.90;99.90;;;;;;5074363;28;20032;-84
2021/08/19 23:01:48;;;;;;;1.75;1.65;;;19.90;99.90;;;;;;5077234;28;20021;-79
2021/08/19 23:04:14;;;;;;;0.90;0.90;;;19.90;99.90;;;;;;5077418;28;20036;-80
2021/08/19 23:06:40;;;;;;;3.65;1.40;;;20.00;99.90;;;;;;5076861;28;20198;-82
2021/08/19 23:09:06;;;;;;;0.77;0.77;;;19.90;99.90;;;;;;5076831;28;20435;-80
2021/08/19 23:11:32;;;;;;;0.30;0.30;;;19.90;99.90;;;;;;5076946;28;20024;-83
2021/08/19 23:13:58;;;;;;;0.50;0.50;;;19.80;99.90;;;;;;5076748;28;20470;-84
2021/08/19 23:16:24;;;;;;;0.43;0.30;;;19.80;99.90;;;;;;5076681;28;20031;-79
2021/08/19 23:18:49;;;;;;;0.38;0.38;;;19.80;99.90;;;;;;5077231;28;20115;-76
2021/08/19 23:21:16;;;;;;;0.63;0.63;;;19.80;99.90;;;;;;5076870;28;20029;-82
2021/08/19 23:23:42;;;;;;;0.40;0.40;;;19.80;99.90;;;;;;5076864;28;20028;-84
2021/08/19 23:26:08;;;;;;;2.42;1.95;;;19.80;99.90;;;;;;5077006;28;20343;-86
2021/08/19 23:28:34;;;;;;;0.63;0.63;;;19.90;99.90;;;;;;5076990;28;20135;-85
2021/08/19 23:30:59;;;;;;;0.32;0.32;;;19.80;99.90;;;;;;5076537;28;20027;-80
2021/08/19 23:33:25;;;;;;;0.10;0.10;;;19.70;99.90;;;;;;5076274;28;20035;-84
2021/08/19 23:36:30;;;;;;;0.93;0.93;;;19.70;99.90;;;;;;5077021;28;20096;-81
2021/08/19 23:38:55;;;;;;;2.30;1.10;;;19.70;99.90;;;;;;5076411;28;20051;-88
2021/08/19 23:41:21;;;;;;;0.63;0.63;;;19.70;99.90;;;;;;5076906;28;20059;-77
2021/08/19 23:43:47;;;;;;;0.70;0.60;;;19.80;99.90;;;;;;5076181;28;20028;-85
2021/08/19 23:46:12;;;;;;;0.43;0.43;;;19.70;99.90;;;;;;5075943;28;20092;-81
2021/08/19 23:48:38;;;;;;;0.05;0.05;;;19.80;99.90;;;;;;5076338;28;20466;-81
2021/08/19 23:51:04;;;;;;;0.38;0.38;;;19.80;99.90;;;;;;5076436;28;20063;-83
2021/08/19 23:53:30;;;;;;;0.10;0.10;;;19.90;99.90;;;;;;5075952;28;20071;-85
2021/08/19 23:55:56;;;;;;;0.52;0.52;;;19.80;99.90;;;;;;5076264;28;20029;-83
2021/08/19 23:58:22;;;;;;;0.52;0.52;;;19.80;99.90;;;;;;5076001;28;20024;-83
